sim
Sign-in with your pilot id or email,
or register
Callsign
Passwort

Schedule Details

Flight Number: OEO4535
Departure: Hannover Langenhagen Airport (EDDV) at 06:55
Arrival: Munich Airport (EDDM) at 08:10

Weather Information
Getting current METAR information for EDDV 210720Z 08005KT CAVOK 12/07 Q1018 NOSIG
Getting current METAR information for EDDM 210720Z VRB01KT CAVOK 13/12 Q1017 BECMG 09005KT

Schedule Frequency

Route Map